sensor_id;sensor_type;location;lat;lon;timestamp;P1;durP1;ratioP1;P2;durP2;ratioP2
17794;SDS011;9021;50.882;4.326;2023-04-28T00:00:52;23.70;;;18.83;;
17794;SDS011;9021;50.882;4.326;2023-04-28T00:03:18;26.77;;;18.83;;
17794;SDS011;9021;50.882;4.326;2023-04-28T00:05:44;24.70;;;19.00;;
17794;SDS011;9021;50.882;4.326;2023-04-28T00:08:10;27.58;;;19.70;;
17794;SDS011;9021;50.882;4.326;2023-04-28T00:10:36;24.17;;;20.02;;
17794;SDS011;9021;50.882;4.326;2023-04-28T00:13:02;25.17;;;19.80;;
17794;SDS011;9021;50.882;4.326;2023-04-28T00:15:27;29.50;;;20.27;;
17794;SDS011;9021;50.882;4.326;2023-04-28T00:17:53;30.05;;;21.23;;
17794;SDS011;9021;50.882;4.326;2023-04-28T00:20:19;26.75;;;22.13;;
17794;SDS011;9021;50.882;4.326;2023-04-28T00:22:45;30.80;;;22.25;;
17794;SDS011;9021;50.882;4.326;2023-04-28T00:25:11;28.73;;;21.55;;
17794;SDS011;9021;50.882;4.326;2023-04-28T00:27:36;33.10;;;23.13;;
17794;SDS011;9021;50.882;4.326;2023-04-28T00:30:02;30.77;;;22.38;;
17794;SDS011;9021;50.882;4.326;2023-04-28T00:32:28;29.52;;;23.88;;
17794;SDS011;9021;50.882;4.326;2023-04-28T00:34:55;28.55;;;23.30;;
17794;SDS011;9021;50.882;4.326;2023-04-28T00:37:21;32.50;;;24.67;;
17794;SDS011;9021;50.882;4.326;2023-04-28T00:39:47;30.83;;;24.58;;
17794;SDS011;9021;50.882;4.326;2023-04-28T00:42:13;29.50;;;23.08;;
17794;SDS011;9021;50.882;4.326;2023-04-28T00:44:39;33.97;;;24.35;;
17794;SDS011;9021;50.882;4.326;2023-04-28T00:47:05;29.70;;;23.58;;
17794;SDS011;9021;50.882;4.326;2023-04-28T00:49:33;36.25;;;24.83;;
17794;SDS011;9021;50.882;4.326;2023-04-28T00:52:03;30.63;;;23.95;;
17794;SDS011;9021;50.882;4.326;2023-04-28T00:54:31;28.50;;;23.15;;
17794;SDS011;9021;50.882;4.326;2023-04-28T00:56:58;33.33;;;23.63;;
17794;SDS011;9021;50.882;4.326;2023-04-28T00:59:27;30.42;;;22.83;;
17794;SDS011;9021;50.882;4.326;2023-04-28T01:01:54;26.05;;;22.30;;
17794;SDS011;9021;50.882;4.326;2023-04-28T01:06:47;30.92;;;22.17;;
17794;SDS011;9021;50.882;4.326;2023-04-28T01:09:15;30.33;;;23.08;;
17794;SDS011;9021;50.882;4.326;2023-04-28T01:11:40;29.83;;;24.02;;
17794;SDS011;9021;50.882;4.326;2023-04-28T01:14:06;30.08;;;24.02;;
17794;SDS011;9021;50.882;4.326;2023-04-28T01:16:32;31.50;;;25.15;;
17794;SDS011;9021;50.882;4.326;2023-04-28T01:18:58;32.85;;;25.50;;
17794;SDS011;9021;50.882;4.326;2023-04-28T01:21:29;37.05;;;24.67;;
17794;SDS011;9021;50.882;4.326;2023-04-28T01:23:59;32.20;;;25.00;;
17794;SDS011;9021;50.882;4.326;2023-04-28T01:26:25;32.70;;;24.38;;
17794;SDS011;9021;50.882;4.326;2023-04-28T01:28:51;31.23;;;24.27;;
17794;SDS011;9021;50.882;4.326;2023-04-28T01:31:17;33.17;;;24.70;;
17794;SDS011;9021;50.882;4.326;2023-04-28T01:33:43;31.00;;;24.27;;
17794;SDS011;9021;50.882;4.326;2023-04-28T01:36:08;34.88;;;25.05;;
17794;SDS011;9021;50.882;4.326;2023-04-28T01:38:34;33.47;;;25.20;;
17794;SDS011;9021;50.882;4.326;2023-04-28T01:41:00;34.30;;;26.08;;
17794;SDS011;9021;50.882;4.326;2023-04-28T01:43:33;35.78;;;26.13;;
17794;SDS011;9021;50.882;4.326;2023-04-28T01:45:59;35.30;;;26.45;;
17794;SDS011;9021;50.882;4.326;2023-04-28T01:48:24;32.70;;;26.02;;
17794;SDS011;9021;50.882;4.326;2023-04-28T01:50:50;30.38;;;26.02;;
17794;SDS011;9021;50.882;4.326;2023-04-28T01:53:15;33.10;;;25.40;;
17794;SDS011;9021;50.882;4.326;2023-04-28T01:55:44;34.15;;;24.75;;
17794;SDS011;9021;50.882;4.326;2023-04-28T01:58:11;31.55;;;25.05;;
17794;SDS011;9021;50.882;4.326;2023-04-28T02:00:36;31.67;;;24.45;;
17794;SDS011;9021;50.882;4.326;2023-04-28T02:03:02;33.35;;;24.60;;
17794;SDS011;9021;50.882;4.326;2023-04-28T02:05:28;32.83;;;25.02;;
17794;SDS011;9021;50.882;4.326;2023-04-28T02:07:54;33.55;;;25.15;;
17794;SDS011;9021;50.882;4.326;2023-04-28T02:10:20;37.65;;;25.80;;
17794;SDS011;9021;50.882;4.326;2023-04-28T02:12:45;35.97;;;26.00;;
17794;SDS011;9021;50.882;4.326;2023-04-28T02:15:11;33.70;;;26.48;;
17794;SDS011;9021;50.882;4.326;2023-04-28T02:17:38;37.38;;;27.73;;
17794;SDS011;9021;50.882;4.326;2023-04-28T02:20:03;39.63;;;28.88;;
17794;SDS011;9021;50.882;4.326;2023-04-28T02:22:30;36.15;;;28.63;;
17794;SDS011;9021;50.882;4.326;2023-04-28T02:24:56;40.63;;;29.52;;
17794;SDS011;9021;50.882;4.326;2023-04-28T02:27:21;39.20;;;29.83;;
17794;SDS011;9021;50.882;4.326;2023-04-28T02:29:47;39.83;;;30.30;;
17794;SDS011;9021;50.882;4.326;2023-04-28T02:32:13;40.67;;;30.45;;
17794;SDS011;9021;50.882;4.326;2023-04-28T02:34:39;38.55;;;30.27;;
17794;SDS011;9021;50.882;4.326;2023-04-28T02:37:05;44.50;;;31.40;;
17794;SDS011;9021;50.882;4.326;2023-04-28T02:39:30;42.35;;;31.38;;
17794;SDS011;9021;50.882;4.326;2023-04-28T02:41:57;40.63;;;31.83;;
17794;SDS011;9021;50.882;4.326;2023-04-28T02:44:23;46.22;;;33.40;;
17794;SDS011;9021;50.882;4.326;2023-04-28T02:46:48;44.50;;;33.35;;
17794;SDS011;9021;50.882;4.326;2023-04-28T02:49:14;40.80;;;30.40;;
17794;SDS011;9021;50.882;4.326;2023-04-28T02:51:40;41.45;;;31.65;;
17794;SDS011;9021;50.882;4.326;2023-04-28T02:54:05;44.92;;;33.05;;
17794;SDS011;9021;50.882;4.326;2023-04-28T02:56:32;42.53;;;31.15;;
17794;SDS011;9021;50.882;4.326;2023-04-28T02:58:58;43.95;;;31.95;;
17794;SDS011;9021;50.882;4.326;2023-04-28T03:01:24;43.30;;;33.00;;
17794;SDS011;9021;50.882;4.326;2023-04-28T03:03:50;43.00;;;31.80;;
17794;SDS011;9021;50.882;4.326;2023-04-28T03:06:15;41.20;;;31.50;;
17794;SDS011;9021;50.882;4.326;2023-04-28T03:08:41;41.65;;;31.83;;
17794;SDS011;9021;50.882;4.326;2023-04-28T03:11:07;40.75;;;30.65;;
17794;SDS011;9021;50.882;4.326;2023-04-28T03:13:32;40.53;;;31.20;;
17794;SDS011;9021;50.882;4.326;2023-04-28T03:16:01;40.35;;;31.35;;
17794;SDS011;9021;50.882;4.326;2023-04-28T03:18:26;40.92;;;31.95;;
17794;SDS011;9021;50.882;4.326;2023-04-28T03:20:52;39.53;;;30.92;;
17794;SDS011;9021;50.882;4.326;2023-04-28T03:23:18;41.42;;;29.83;;
17794;SDS011;9021;50.882;4.326;2023-04-28T03:25:43;42.63;;;31.23;;
17794;SDS011;9021;50.882;4.326;2023-04-28T03:28:09;38.92;;;30.58;;
17794;SDS011;9021;50.882;4.326;2023-04-28T03:30:35;39.22;;;30.77;;
17794;SDS011;9021;50.882;4.326;2023-04-28T03:33:01;40.25;;;30.73;;
17794;SDS011;9021;50.882;4.326;2023-04-28T03:35:27;41.15;;;30.85;;
17794;SDS011;9021;50.882;4.326;2023-04-28T03:37:52;39.45;;;31.40;;
17794;SDS011;9021;50.882;4.326;2023-04-28T03:40:18;40.70;;;30.58;;
17794;SDS011;9021;50.882;4.326;2023-04-28T03:42:44;38.97;;;29.55;;
17794;SDS011;9021;50.882;4.326;2023-04-28T03:45:10;47.20;;;31.95;;
17794;SDS011;9021;50.882;4.326;2023-04-28T03:47:36;39.08;;;29.92;;
17794;SDS011;9021;50.882;4.326;2023-04-28T03:50:02;39.38;;;29.83;;
17794;SDS011;9021;50.882;4.326;2023-04-28T03:52:28;41.72;;;30.33;;
17794;SDS011;9021;50.882;4.326;2023-04-28T03:54:53;39.45;;;29.38;;
17794;SDS011;9021;50.882;4.326;2023-04-28T03:57:19;41.08;;;30.73;;
17794;SDS011;9021;50.882;4.326;2023-04-28T03:59:45;43.17;;;30.23;;
17794;SDS011;9021;50.882;4.326;2023-04-28T04:02:11;38.65;;;30.00;;
17794;SDS011;9021;50.882;4.326;2023-04-28T04:04:36;40.55;;;29.83;;
17794;SDS011;9021;50.882;4.326;2023-04-28T04:07:02;43.95;;;30.05;;
17794;SDS011;9021;50.882;4.326;2023-04-28T04:09:28;38.58;;;30.08;;
17794;SDS011;9021;50.882;4.326;2023-04-28T04:11:54;38.33;;;31.15;;
17794;SDS011;9021;50.882;4.326;2023-04-28T04:14:19;41.22;;;31.27;;
17794;SDS011;9021;50.882;4.326;2023-04-28T04:16:45;42.50;;;31.85;;
17794;SDS011;9021;50.882;4.326;2023-04-28T04:19:14;39.70;;;30.80;;
17794;SDS011;9021;50.882;4.326;2023-04-28T04:21:40;40.30;;;31.50;;
17794;SDS011;9021;50.882;4.326;2023-04-28T04:24:05;43.83;;;30.95;;
17794;SDS011;9021;50.882;4.326;2023-04-28T04:26:31;39.42;;;31.15;;
17794;SDS011;9021;50.882;4.326;2023-04-28T04:28:57;46.45;;;32.20;;
17794;SDS011;9021;50.882;4.326;2023-04-28T04:31:22;41.45;;;31.92;;
17794;SDS011;9021;50.882;4.326;2023-04-28T04:33:48;46.47;;;32.58;;
17794;SDS011;9021;50.882;4.326;2023-04-28T04:36:14;41.92;;;32.08;;
17794;SDS011;9021;50.882;4.326;2023-04-28T04:38:39;40.95;;;32.40;;
17794;SDS011;9021;50.882;4.326;2023-04-28T04:41:05;40.92;;;31.65;;
17794;SDS011;9021;50.882;4.326;2023-04-28T04:43:31;41.35;;;31.60;;
17794;SDS011;9021;50.882;4.326;2023-04-28T04:45:56;41.20;;;32.13;;
17794;SDS011;9021;50.882;4.326;2023-04-28T04:48:22;45.28;;;32.80;;
17794;SDS011;9021;50.882;4.326;2023-04-28T04:50:48;46.95;;;33.22;;
17794;SDS011;9021;50.882;4.326;2023-04-28T04:53:13;44.80;;;32.35;;
17794;SDS011;9021;50.882;4.326;2023-04-28T04:55:39;40.05;;;30.95;;
17794;SDS011;9021;50.882;4.326;2023-04-28T04:58:05;43.47;;;31.60;;
17794;SDS011;9021;50.882;4.326;2023-04-28T05:00:30;43.35;;;33.95;;
17794;SDS011;9021;50.882;4.326;2023-04-28T05:02:56;43.38;;;34.95;;
17794;SDS011;9021;50.882;4.326;2023-04-28T05:05:22;41.97;;;33.85;;
17794;SDS011;9021;50.882;4.326;2023-04-28T05:07:47;48.22;;;36.50;;
17794;SDS011;9021;50.882;4.326;2023-04-28T05:10:13;45.72;;;34.10;;
17794;SDS011;9021;50.882;4.326;2023-04-28T05:12:39;49.40;;;36.33;;
17794;SDS011;9021;50.882;4.326;2023-04-28T05:15:05;48.65;;;36.50;;
17794;SDS011;9021;50.882;4.326;2023-04-28T05:17:32;43.20;;;33.22;;
17794;SDS011;9021;50.882;4.326;2023-04-28T05:19:58;42.80;;;34.42;;
17794;SDS011;9021;50.882;4.326;2023-04-28T05:22:24;42.80;;;33.92;;
17794;SDS011;9021;50.882;4.326;2023-04-28T05:24:52;49.15;;;35.63;;
17794;SDS011;9021;50.882;4.326;2023-04-28T05:27:18;41.75;;;34.10;;
17794;SDS011;9021;50.882;4.326;2023-04-28T05:29:44;48.40;;;35.40;;
17794;SDS011;9021;50.882;4.326;2023-04-28T05:32:10;49.45;;;35.78;;
17794;SDS011;9021;50.882;4.326;2023-04-28T05:34:35;47.53;;;35.47;;
17794;SDS011;9021;50.882;4.326;2023-04-28T05:37:01;46.00;;;36.85;;
17794;SDS011;9021;50.882;4.326;2023-04-28T05:39:26;46.58;;;35.80;;
17794;SDS011;9021;50.882;4.326;2023-04-28T05:41:52;49.30;;;36.88;;
17794;SDS011;9021;50.882;4.326;2023-04-28T05:44:18;49.92;;;37.38;;
17794;SDS011;9021;50.882;4.326;2023-04-28T05:46:43;50.67;;;37.50;;
17794;SDS011;9021;50.882;4.326;2023-04-28T05:49:09;45.63;;;36.58;;
17794;SDS011;9021;50.882;4.326;2023-04-28T05:51:35;48.25;;;37.33;;
17794;SDS011;9021;50.882;4.326;2023-04-28T05:54:01;55.67;;;38.97;;
17794;SDS011;9021;50.882;4.326;2023-04-28T05:58:53;50.38;;;37.08;;
17794;SDS011;9021;50.882;4.326;2023-04-28T06:01:19;46.97;;;36.58;;
17794;SDS011;9021;50.882;4.326;2023-04-28T06:03:45;53.25;;;38.17;;
17794;SDS011;9021;50.882;4.326;2023-04-28T06:06:11;50.97;;;37.08;;
17794;SDS011;9021;50.882;4.326;2023-04-28T06:08:37;44.25;;;35.85;;
17794;SDS011;9021;50.882;4.326;2023-04-28T06:13:29;44.72;;;34.30;;
17794;SDS011;9021;50.882;4.326;2023-04-28T06:15:55;40.08;;;32.10;;
17794;SDS011;9021;50.882;4.326;2023-04-28T06:18:20;45.53;;;34.55;;
17794;SDS011;9021;50.882;4.326;2023-04-28T06:20:48;43.80;;;33.65;;
17794;SDS011;9021;50.882;4.326;2023-04-28T06:23:14;64.45;;;55.28;;
17794;SDS011;9021;50.882;4.326;2023-04-28T06:28:06;22.60;;;17.83;;
17794;SDS011;9021;50.882;4.326;2023-04-28T06:30:32;23.60;;;20.38;;
17794;SDS011;9021;50.882;4.326;2023-04-28T06:32:58;20.35;;;15.48;;
17794;SDS011;9021;50.882;4.326;2023-04-28T06:35:24;10.35;;;9.25;;
17794;SDS011;9021;50.882;4.326;2023-04-28T06:37:50;11.82;;;10.15;;
17794;SDS011;9021;50.882;4.326;2023-04-28T06:40:16;8.90;;;7.97;;
17794;SDS011;9021;50.882;4.326;2023-04-28T06:42:42;8.48;;;7.28;;
17794;SDS011;9021;50.882;4.326;2023-04-28T06:45:08;9.45;;;6.80;;
17794;SDS011;9021;50.882;4.326;2023-04-28T06:47:34;8.85;;;7.95;;
17794;SDS011;9021;50.882;4.326;2023-04-28T06:50:04;14.95;;;11.93;;
17794;SDS011;9021;50.882;4.326;2023-04-28T06:52:31;9.48;;;6.68;;
17794;SDS011;9021;50.882;4.326;2023-04-28T06:54:56;6.93;;;6.30;;
17794;SDS011;9021;50.882;4.326;2023-04-28T06:57:22;7.85;;;6.38;;
17794;SDS011;9021;50.882;4.326;2023-04-28T06:59:48;6.78;;;5.95;;
17794;SDS011;9021;50.882;4.326;2023-04-28T07:02:13;5.75;;;5.25;;
17794;SDS011;9021;50.882;4.326;2023-04-28T07:04:39;6.20;;;5.60;;
17794;SDS011;9021;50.882;4.326;2023-04-28T07:07:05;6.10;;;5.53;;
17794;SDS011;9021;50.882;4.326;2023-04-28T07:09:34;5.45;;;4.90;;
17794;SDS011;9021;50.882;4.326;2023-04-28T07:12:00;5.15;;;4.75;;
17794;SDS011;9021;50.882;4.326;2023-04-28T07:14:26;5.10;;;4.50;;
17794;SDS011;9021;50.882;4.326;2023-04-28T07:16:51;5.47;;;4.00;;
17794;SDS011;9021;50.882;4.326;2023-04-28T07:19:17;4.75;;;3.83;;
17794;SDS011;9021;50.882;4.326;2023-04-28T07:21:42;4.63;;;3.65;;
17794;SDS011;9021;50.882;4.326;2023-04-28T07:26:34;3.22;;;2.92;;
17794;SDS011;9021;50.882;4.326;2023-04-28T07:29:00;3.17;;;2.88;;
17794;SDS011;9021;50.882;4.326;2023-04-28T07:31:26;3.03;;;2.80;;
17794;SDS011;9021;50.882;4.326;2023-04-28T07:33:52;3.20;;;3.00;;
17794;SDS011;9021;50.882;4.326;2023-04-28T07:36:18;4.45;;;2.97;;
17794;SDS011;9021;50.882;4.326;2023-04-28T07:41:10;2.30;;;2.10;;
17794;SDS011;9021;50.882;4.326;2023-04-28T07:43:36;2.38;;;2.10;;
17794;SDS011;9021;50.882;4.326;2023-04-28T07:46:02;2.08;;;1.50;;
17794;SDS011;9021;50.882;4.326;2023-04-28T07:48:28;1.27;;;1.17;;
17794;SDS011;9021;50.882;4.326;2023-04-28T07:50:53;1.02;;;0.90;;
17794;SDS011;9021;50.882;4.326;2023-04-28T07:53:19;1.25;;;0.85;;
17794;SDS011;9021;50.882;4.326;2023-04-28T07:55:45;1.13;;;0.90;;
17794;SDS011;9021;50.882;4.326;2023-04-28T07:58:11;4.93;;;1.23;;
17794;SDS011;9021;50.882;4.326;2023-04-28T08:03:02;1.15;;;0.80;;
17794;SDS011;9021;50.882;4.326;2023-04-28T08:05:28;1.10;;;1.00;;
17794;SDS011;9021;50.882;4.326;2023-04-28T08:07:54;1.88;;;0.70;;
17794;SDS011;9021;50.882;4.326;2023-04-28T08:10:20;2.90;;;1.00;;
17794;SDS011;9021;50.882;4.326;2023-04-28T08:12:46;0.77;;;0.77;;
17794;SDS011;9021;50.882;4.326;2023-04-28T08:15:11;1.83;;;0.70;;
17794;SDS011;9021;50.882;4.326;2023-04-28T08:17:37;1.20;;;0.85;;
17794;SDS011;9021;50.882;4.326;2023-04-28T08:20:03;0.98;;;0.60;;
17794;SDS011;9021;50.882;4.326;2023-04-28T08:22:30;1.65;;;0.50;;
17794;SDS011;9021;50.882;4.326;2023-04-28T08:24:56;1.00;;;0.68;;
17794;SDS011;9021;50.882;4.326;2023-04-28T08:27:22;1.15;;;0.70;;
17794;SDS011;9021;50.882;4.326;2023-04-28T08:29:49;0.80;;;0.60;;
17794;SDS011;9021;50.882;4.326;2023-04-28T08:32:16;1.25;;;0.50;;
17794;SDS011;9021;50.882;4.326;2023-04-28T08:34:42;0.50;;;0.50;;
17794;SDS011;9021;50.882;4.326;2023-04-28T08:37:07;0.77;;;0.60;;
17794;SDS011;9021;50.882;4.326;2023-04-28T08:39:33;1.85;;;0.70;;
17794;SDS011;9021;50.882;4.326;2023-04-28T08:42:02;0.75;;;0.60;;
17794;SDS011;9021;50.882;4.326;2023-04-28T08:44:32;0.93;;;0.40;;
17794;SDS011;9021;50.882;4.326;2023-04-28T08:47:03;2.47;;;0.63;;
17794;SDS011;9021;50.882;4.326;2023-04-28T08:49:37;0.32;;;0.30;;
17794;SDS011;9021;50.882;4.326;2023-04-28T08:52:05;1.00;;;0.50;;
17794;SDS011;9021;50.882;4.326;2023-04-28T08:54:40;0.50;;;0.20;;
17794;SDS011;9021;50.882;4.326;2023-04-28T08:57:09;0.63;;;0.30;;
17794;SDS011;9021;50.882;4.326;2023-04-28T08:59:38;1.77;;;0.30;;
17794;SDS011;9021;50.882;4.326;2023-04-28T09:02:06;1.10;;;0.30;;
17794;SDS011;9021;50.882;4.326;2023-04-28T09:04:32;1.70;;;0.30;;
17794;SDS011;9021;50.882;4.326;2023-04-28T09:09:25;0.98;;;0.30;;
17794;SDS011;9021;50.882;4.326;2023-04-28T09:11:57;0.43;;;0.13;;
17794;SDS011;9021;50.882;4.326;2023-04-28T09:14:25;0.28;;;0.22;;
17794;SDS011;9021;50.882;4.326;2023-04-28T09:16:54;0.38;;;0.13;;
17794;SDS011;9021;50.882;4.326;2023-04-28T09:19:20;0.28;;;0.20;;
17794;SDS011;9021;50.882;4.326;2023-04-28T09:21:47;0.98;;;0.28;;
17794;SDS011;9021;50.882;4.326;2023-04-28T09:26:58;0.22;;;0.20;;
17794;SDS011;9021;50.882;4.326;2023-04-28T09:29:28;0.22;;;0.20;;
17794;SDS011;9021;50.882;4.326;2023-04-28T09:34:50;0.10;;;0.10;;
17794;SDS011;9021;50.882;4.326;2023-04-28T09:37:22;0.30;;;0.20;;
17794;SDS011;9021;50.882;4.326;2023-04-28T09:39:52;0.20;;;0.20;;
17794;SDS011;9021;50.882;4.326;2023-04-28T09:45:03;0.20;;;0.20;;
17794;SDS011;9021;50.882;4.326;2023-04-28T09:47:31;0.20;;;0.20;;
17794;SDS011;9021;50.882;4.326;2023-04-28T09:49:59;0.20;;;0.20;;
17794;SDS011;9021;50.882;4.326;2023-04-28T09:52:26;1.55;;;0.20;;
17794;SDS011;9021;50.882;4.326;2023-04-28T09:54:53;3.15;;;0.70;;
17794;SDS011;9021;50.882;4.326;2023-04-28T09:57:20;1.75;;;0.30;;
17794;SDS011;9021;50.882;4.326;2023-04-28T09:59:48;1.00;;;0.30;;
17794;SDS011;9021;50.882;4.326;2023-04-28T10:02:15;1.20;;;0.25;;
17794;SDS011;9021;50.882;4.326;2023-04-28T10:04:47;0.20;;;0.20;;
17794;SDS011;9021;50.882;4.326;2023-04-28T10:07:17;1.55;;;0.20;;
17794;SDS011;9021;50.882;4.326;2023-04-28T10:09:45;1.13;;;0.28;;
17794;SDS011;9021;50.882;4.326;2023-04-28T10:12:14;1.02;;;0.30;;
17794;SDS011;9021;50.882;4.326;2023-04-28T10:14:42;4.25;;;0.38;;
17794;SDS011;9021;50.882;4.326;2023-04-28T10:17:09;1.60;;;0.30;;
17794;SDS011;9021;50.882;4.326;2023-04-28T10:19:37;1.65;;;0.22;;
17794;SDS011;9021;50.882;4.326;2023-04-28T10:25:15;1.40;;;0.30;;
17794;SDS011;9021;50.882;4.326;2023-04-28T10:27:46;1.00;;;0.40;;
17794;SDS011;9021;50.882;4.326;2023-04-28T10:30:17;1.63;;;0.30;;
17794;SDS011;9021;50.882;4.326;2023-04-28T10:32:44;1.75;;;0.40;;
17794;SDS011;9021;50.882;4.326;2023-04-28T10:40:33;1.30;;;0.32;;
17794;SDS011;9021;50.882;4.326;2023-04-28T10:43:00;0.85;;;0.22;;
17794;SDS011;9021;50.882;4.326;2023-04-28T10:48:21;0.77;;;0.35;;
17794;SDS011;9021;50.882;4.326;2023-04-28T11:03:49;0.70;;;0.40;;
17794;SDS011;9021;50.882;4.326;2023-04-28T11:06:32;1.80;;;0.60;;
17794;SDS011;9021;50.882;4.326;2023-04-28T11:11:39;2.42;;;0.50;;
17794;SDS011;9021;50.882;4.326;2023-04-28T11:16:57;3.90;;;0.70;;
17794;SDS011;9021;50.882;4.326;2023-04-28T11:19:28;4.10;;;0.60;;
17794;SDS011;9021;50.882;4.326;2023-04-28T11:21:58;1.77;;;0.50;;
17794;SDS011;9021;50.882;4.326;2023-04-28T11:24:25;3.17;;;0.73;;
17794;SDS011;9021;50.882;4.326;2023-04-28T11:26:57;1.70;;;0.63;;
17794;SDS011;9021;50.882;4.326;2023-04-28T11:29:30;4.90;;;0.90;;
17794;SDS011;9021;50.882;4.326;2023-04-28T11:31:57;1.33;;;0.60;;
17794;SDS011;9021;50.882;4.326;2023-04-28T11:34:23;3.13;;;0.77;;
17794;SDS011;9021;50.882;4.326;2023-04-28T11:36:49;1.05;;;0.70;;
17794;SDS011;9021;50.882;4.326;2023-04-28T11:39:15;2.67;;;0.88;;
17794;SDS011;9021;50.882;4.326;2023-04-28T11:41:42;2.95;;;0.80;;
17794;SDS011;9021;50.882;4.326;2023-04-28T11:44:12;4.38;;;1.02;;
17794;SDS011;9021;50.882;4.326;2023-04-28T11:46:45;1.15;;;0.88;;
17794;SDS011;9021;50.882;4.326;2023-04-28T11:49:21;3.38;;;1.08;;
17794;SDS011;9021;50.882;4.326;2023-04-28T11:51:53;2.17;;;0.88;;
17794;SDS011;9021;50.882;4.326;2023-04-28T11:54:23;2.47;;;0.93;;
17794;SDS011;9021;50.882;4.326;2023-04-28T11:56:50;2.20;;;1.08;;
17794;SDS011;9021;50.882;4.326;2023-04-28T11:59:16;4.40;;;0.95;;
17794;SDS011;9021;50.882;4.326;2023-04-28T12:01:54;1.38;;;0.90;;
17794;SDS011;9021;50.882;4.326;2023-04-28T12:04:27;3.30;;;0.68;;
17794;SDS011;9021;50.882;4.326;2023-04-28T12:07:15;1.58;;;0.85;;
17794;SDS011;9021;50.882;4.326;2023-04-28T12:10:08;0.88;;;0.70;;
17794;SDS011;9021;50.882;4.326;2023-04-28T12:12:34;2.15;;;0.65;;
17794;SDS011;9021;50.882;4.326;2023-04-28T12:15:01;2.15;;;0.70;;
17794;SDS011;9021;50.882;4.326;2023-04-28T12:17:35;1.73;;;0.73;;
17794;SDS011;9021;50.882;4.326;2023-04-28T12:20:04;1.25;;;0.80;;
17794;SDS011;9021;50.882;4.326;2023-04-28T12:22:41;0.75;;;0.60;;
17794;SDS011;9021;50.882;4.326;2023-04-28T12:25:15;0.88;;;0.50;;
17794;SDS011;9021;50.882;4.326;2023-04-28T12:27:57;2.35;;;0.60;;
17794;SDS011;9021;50.882;4.326;2023-04-28T12:30:33;0.93;;;0.30;;
17794;SDS011;9021;50.882;4.326;2023-04-28T12:33:02;1.45;;;0.65;;
17794;SDS011;9021;50.882;4.326;2023-04-28T12:35:28;0.40;;;0.40;;
17794;SDS011;9021;50.882;4.326;2023-04-28T12:40:21;3.03;;;0.60;;
17794;SDS011;9021;50.882;4.326;2023-04-28T12:42:47;0.60;;;0.40;;
17794;SDS011;9021;50.882;4.326;2023-04-28T12:45:13;0.70;;;0.50;;
17794;SDS011;9021;50.882;4.326;2023-04-28T12:47:40;1.65;;;0.50;;
17794;SDS011;9021;50.882;4.326;2023-04-28T12:50:06;2.40;;;0.50;;
17794;SDS011;9021;50.882;4.326;2023-04-28T12:52:33;2.40;;;0.82;;
17794;SDS011;9021;50.882;4.326;2023-04-28T12:54:59;2.17;;;0.60;;
17794;SDS011;9021;50.882;4.326;2023-04-28T12:59:52;2.40;;;0.73;;
17794;SDS011;9021;50.882;4.326;2023-04-28T13:02:20;1.80;;;0.77;;
17794;SDS011;9021;50.882;4.326;2023-04-28T13:04:45;1.42;;;0.60;;
17794;SDS011;9021;50.882;4.326;2023-04-28T13:07:12;2.20;;;0.70;;
17794;SDS011;9021;50.882;4.326;2023-04-28T13:09:38;0.90;;;0.55;;
17794;SDS011;9021;50.882;4.326;2023-04-28T13:12:04;3.22;;;0.60;;
17794;SDS011;9021;50.882;4.326;2023-04-28T13:14:29;0.55;;;0.50;;
17794;SDS011;9021;50.882;4.326;2023-04-28T13:16:55;0.80;;;0.50;;
17794;SDS011;9021;50.882;4.326;2023-04-28T13:19:22;1.27;;;0.70;;
17794;SDS011;9021;50.882;4.326;2023-04-28T13:21:47;1.30;;;0.60;;
17794;SDS011;9021;50.882;4.326;2023-04-28T13:24:14;0.40;;;0.40;;
17794;SDS011;9021;50.882;4.326;2023-04-28T13:26:39;1.27;;;0.70;;
17794;SDS011;9021;50.882;4.326;2023-04-28T13:29:05;1.10;;;0.50;;
17794;SDS011;9021;50.882;4.326;2023-04-28T13:31:34;2.03;;;0.82;;
17794;SDS011;9021;50.882;4.326;2023-04-28T13:34:00;0.60;;;0.60;;
17794;SDS011;9021;50.882;4.326;2023-04-28T13:36:26;0.60;;;0.60;;
17794;SDS011;9021;50.882;4.326;2023-04-28T13:38:56;1.15;;;0.73;;
17794;SDS011;9021;50.882;4.326;2023-04-28T13:41:22;2.45;;;0.77;;
17794;SDS011;9021;50.882;4.326;2023-04-28T13:43:48;2.58;;;0.60;;
17794;SDS011;9021;50.882;4.326;2023-04-28T13:46:14;0.80;;;0.60;;
17794;SDS011;9021;50.882;4.326;2023-04-28T13:48:39;3.95;;;0.65;;
17794;SDS011;9021;50.882;4.326;2023-04-28T13:51:05;1.85;;;0.60;;
17794;SDS011;9021;50.882;4.326;2023-04-28T13:53:32;0.70;;;0.70;;
17794;SDS011;9021;50.882;4.326;2023-04-28T13:55:59;2.78;;;0.80;;
17794;SDS011;9021;50.882;4.326;2023-04-28T13:58:26;5.72;;;0.98;;
17794;SDS011;9021;50.882;4.326;2023-04-28T14:00:52;3.28;;;1.15;;
17794;SDS011;9021;50.882;4.326;2023-04-28T14:08:12;1.07;;;0.70;;
17794;SDS011;9021;50.882;4.326;2023-04-28T14:10:37;1.73;;;0.90;;
17794;SDS011;9021;50.882;4.326;2023-04-28T14:13:03;3.90;;;0.90;;
17794;SDS011;9021;50.882;4.326;2023-04-28T14:15:29;2.78;;;0.65;;
17794;SDS011;9021;50.882;4.326;2023-04-28T14:17:54;1.20;;;0.70;;
17794;SDS011;9021;50.882;4.326;2023-04-28T14:20:20;3.75;;;0.80;;
17794;SDS011;9021;50.882;4.326;2023-04-28T14:22:46;1.38;;;0.68;;
17794;SDS011;9021;50.882;4.326;2023-04-28T14:25:11;0.77;;;0.60;;
17794;SDS011;9021;50.882;4.326;2023-04-28T14:27:37;1.40;;;0.60;;
17794;SDS011;9021;50.882;4.326;2023-04-28T14:30:03;3.25;;;0.80;;
17794;SDS011;9021;50.882;4.326;2023-04-28T14:34:54;1.08;;;0.60;;
17794;SDS011;9021;50.882;4.326;2023-04-28T14:37:20;3.28;;;0.73;;
17794;SDS011;9021;50.882;4.326;2023-04-28T14:39:47;0.73;;;0.70;;
17794;SDS011;9021;50.882;4.326;2023-04-28T14:42:12;3.80;;;1.30;;
17794;SDS011;9021;50.882;4.326;2023-04-28T14:44:38;0.43;;;0.40;;
17794;SDS011;9021;50.882;4.326;2023-04-28T14:47:04;0.80;;;0.77;;
17794;SDS011;9021;50.882;4.326;2023-04-28T14:49:30;0.60;;;0.60;;
17794;SDS011;9021;50.882;4.326;2023-04-28T14:51:56;2.80;;;0.70;;
17794;SDS011;9021;50.882;4.326;2023-04-28T14:54:23;2.45;;;0.77;;
17794;SDS011;9021;50.882;4.326;2023-04-28T14:56:49;0.75;;;0.50;;
17794;SDS011;9021;50.882;4.326;2023-04-28T14:59:15;0.73;;;0.50;;
17794;SDS011;9021;50.882;4.326;2023-04-28T15:01:40;3.00;;;0.93;;
17794;SDS011;9021;50.882;4.326;2023-04-28T15:04:07;1.05;;;0.30;;
17794;SDS011;9021;50.882;4.326;2023-04-28T15:06:33;0.47;;;0.47;;
17794;SDS011;9021;50.882;4.326;2023-04-28T15:11:25;0.70;;;0.35;;
17794;SDS011;9021;50.882;4.326;2023-04-28T15:13:51;0.93;;;0.40;;
17794;SDS011;9021;50.882;4.326;2023-04-28T15:16:17;0.77;;;0.30;;
17794;SDS011;9021;50.882;4.326;2023-04-28T15:18:43;3.05;;;0.30;;
17794;SDS011;9021;50.882;4.326;2023-04-28T15:21:10;4.28;;;0.40;;
17794;SDS011;9021;50.882;4.326;2023-04-28T15:23:36;2.50;;;0.30;;
17794;SDS011;9021;50.882;4.326;2023-04-28T15:26:02;1.42;;;0.30;;
17794;SDS011;9021;50.882;4.326;2023-04-28T15:28:27;1.33;;;0.30;;
17794;SDS011;9021;50.882;4.326;2023-04-28T15:30:53;0.55;;;0.20;;
17794;SDS011;9021;50.882;4.326;2023-04-28T15:33:19;2.10;;;0.32;;
17794;SDS011;9021;50.882;4.326;2023-04-28T15:35:45;0.88;;;0.43;;
17794;SDS011;9021;50.882;4.326;2023-04-28T15:40:37;1.15;;;0.38;;
17794;SDS011;9021;50.882;4.326;2023-04-28T15:43:04;1.38;;;0.38;;
17794;SDS011;9021;50.882;4.326;2023-04-28T15:45:30;1.38;;;0.32;;
17794;SDS011;9021;50.882;4.326;2023-04-28T15:47:56;1.63;;;0.30;;
17794;SDS011;9021;50.882;4.326;2023-04-28T15:50:22;1.02;;;0.30;;
17794;SDS011;9021;50.882;4.326;2023-04-28T15:52:48;2.03;;;0.40;;
17794;SDS011;9021;50.882;4.326;2023-04-28T15:55:14;0.65;;;0.50;;
17794;SDS011;9021;50.882;4.326;2023-04-28T15:57:42;1.70;;;0.40;;
17794;SDS011;9021;50.882;4.326;2023-04-28T16:00:08;2.28;;;0.50;;
17794;SDS011;9021;50.882;4.326;2023-04-28T16:02:36;0.98;;;0.50;;